createdAt,value
2018-10-12T00:01:21.546Z,100303.66
2018-10-12T00:03:51.409Z,100303.48
2018-10-12T00:06:21.171Z,100308.47
2018-10-12T00:08:51.057Z,100308.00
2018-10-12T00:11:20.856Z,100317.66
2018-10-12T00:13:50.751Z,100313.92
2018-10-12T00:16:20.662Z,100314.11
2018-10-12T00:18:50.506Z,100319.80
2018-10-12T00:21:20.580Z,100317.62
2018-10-12T00:23:50.345Z,100314.25
2018-10-12T00:26:20.101Z,100313.62
2018-10-12T00:28:49.758Z,100320.38
2018-10-12T00:31:19.647Z,100324.92
2018-10-12T00:33:49.394Z,100325.61
2018-10-12T00:36:19.417Z,100326.70
2018-10-12T00:38:49.506Z,100325.95
2018-10-12T00:41:19.498Z,100332.13
2018-10-12T00:43:49.316Z,100330.75
2018-10-12T00:46:18.990Z,100336.70
2018-10-12T00:48:49.589Z,100335.11
2018-10-12T00:51:19.484Z,100338.37
2018-10-12T00:53:49.300Z,100333.21
2018-10-12T00:56:19.034Z,100337.64
2018-10-12T00:58:48.870Z,100344.56
2018-10-12T01:01:19.735Z,100346.84
2018-10-12T01:03:50.321Z,100349.45
2018-10-12T01:06:20.091Z,100347.97
2018-10-12T01:08:49.840Z,100346.70
2018-10-12T01:11:20.477Z,100340.16
2018-10-12T01:13:50.223Z,100349.14
2018-10-12T01:16:19.960Z,100353.91
2018-10-12T01:18:49.694Z,100354.09
2018-10-12T01:21:19.456Z,100356.01
2018-10-12T01:23:49.240Z,100359.20
2018-10-12T01:26:19.053Z,100351.64
2018-10-12T01:28:54.782Z,100352.80
2018-10-12T01:31:25.464Z,100350.30
2018-10-12T01:33:55.509Z,100346.39
2018-10-12T01:36:25.293Z,100345.83
2018-10-12T01:38:55.011Z,100340.97
2018-10-12T01:41:24.685Z,100348.08
2018-10-12T01:43:54.469Z,100344.92
2018-10-12T01:46:24.200Z,100343.26
2018-10-12T01:48:53.953Z,100345.63
2018-10-12T01:51:23.643Z,100341.14
2018-10-12T01:53:53.390Z,100344.74
2018-10-12T01:56:23.124Z,100339.56
2018-10-12T01:58:52.805Z,100335.09
2018-10-12T02:01:22.650Z,100333.00
2018-10-12T02:03:52.400Z,100327.41
2018-10-12T02:06:22.361Z,100323.70
2018-10-12T02:08:52.115Z,100327.72
2018-10-12T02:11:21.815Z,100335.69
2018-10-12T02:13:51.813Z,100338.39
2018-10-12T02:16:21.671Z,100338.22
2018-10-12T02:18:51.539Z,100336.08
2018-10-12T02:21:22.193Z,100332.72
2018-10-12T02:23:52.043Z,100331.23
2018-10-12T02:26:22.676Z,100336.98
2018-10-12T02:28:52.630Z,100337.61
2018-10-12T02:31:22.369Z,100338.63
2018-10-12T02:33:53.358Z,100350.17
2018-10-12T02:36:23.441Z,100350.16
2018-10-12T02:38:53.186Z,100355.25
2018-10-12T02:41:23.076Z,100355.06
2018-10-12T02:43:52.875Z,100364.51
2018-10-12T02:46:22.720Z,100368.90
2018-10-12T02:48:52.517Z,100366.59
2018-10-12T02:51:22.279Z,100368.16
2018-10-12T02:53:52.192Z,100371.04
2018-10-12T02:56:23.260Z,100364.05
2018-10-12T02:58:53.538Z,100362.30
2018-10-12T03:01:23.620Z,100365.05
2018-10-12T03:03:53.777Z,100371.91
2018-10-12T03:06:23.662Z,100372.96
2018-10-12T03:08:53.430Z,100376.95
2018-10-12T03:11:23.124Z,100377.58
2018-10-12T03:13:52.972Z,100381.65
2018-10-12T03:16:22.767Z,100376.38
2018-10-12T03:18:52.863Z,100379.34
2018-10-12T03:21:22.704Z,100386.68
2018-10-12T03:23:52.395Z,100384.45
2018-10-12T03:26:22.419Z,100385.66
2018-10-12T03:28:52.157Z,100392.44
2018-10-12T03:31:22.709Z,100388.67
2018-10-12T03:33:52.523Z,100386.95
2018-10-12T03:36:22.504Z,100385.36
2018-10-12T03:38:52.273Z,100385.17
2018-10-12T03:41:22.458Z,100389.43
2018-10-12T03:43:52.112Z,100392.65
2018-10-12T03:46:22.218Z,100390.77
2018-10-12T03:48:52.818Z,100391.59
2018-10-12T03:51:22.904Z,100392.44
2018-10-12T03:53:52.618Z,100388.14
2018-10-12T03:56:24.240Z,100382.66
2018-10-12T03:58:53.930Z,100391.09
2018-10-12T04:01:23.972Z,100400.59
2018-10-12T04:03:53.684Z,100421.37
2018-10-12T04:06:23.754Z,100422.73
2018-10-12T04:08:53.709Z,100430.63
2018-10-12T04:11:23.967Z,100426.34
2018-10-12T04:13:53.812Z,100423.34
2018-10-12T04:16:23.879Z,100435.97
2018-10-12T04:18:53.514Z,100442.31
2018-10-12T04:21:23.493Z,100446.16
2018-10-12T04:23:53.339Z,100453.07
2018-10-12T04:26:23.158Z,100456.02
2018-10-12T04:28:52.862Z,100451.71
2018-10-12T04:31:23.942Z,100462.80
2018-10-12T04:33:53.757Z,100464.49
2018-10-12T04:36:23.664Z,100473.87
2018-10-12T04:40:11.000Z,100476.09
2018-10-12T04:42:40.789Z,100475.80
2018-10-12T04:45:10.700Z,100481.80
2018-10-12T04:47:40.642Z,100490.09
2018-10-12T04:50:10.423Z,100488.11
2018-10-12T04:52:40.232Z,100495.55
2018-10-12T04:55:09.988Z,100497.73
2018-10-12T04:57:39.800Z,100494.00
2018-10-12T05:00:09.854Z,100497.84
2018-10-12T05:02:39.682Z,100504.91
2018-10-12T05:05:09.484Z,100509.96
2018-10-12T05:07:39.272Z,100512.34
2018-10-12T05:10:08.977Z,100509.96
2018-10-12T05:12:39.044Z,100523.81
2018-10-12T05:15:09.043Z,100530.50
2018-10-12T05:17:38.748Z,100525.84
2018-10-12T05:20:08.525Z,100527.36
2018-10-12T05:22:38.285Z,100537.89
2018-10-12T05:25:08.231Z,100549.02
2018-10-12T05:27:38.154Z,100546.53
2018-10-12T05:30:07.999Z,100540.77
2018-10-12T05:32:37.858Z,100538.80
2018-10-12T05:35:07.733Z,100541.77
2018-10-12T05:37:37.514Z,100544.69
2018-10-12T05:40:07.679Z,100554.05
2018-10-12T05:42:37.516Z,100565.23
2018-10-12T05:45:07.354Z,100570.17
2018-10-12T05:47:37.222Z,100579.37
2018-10-12T05:50:08.704Z,100579.87
2018-10-12T05:52:40.209Z,100577.83
2018-10-12T05:55:10.209Z,100574.30
2018-10-12T05:57:43.032Z,100579.70
2018-10-12T06:00:13.499Z,100586.34
2018-10-12T06:02:43.329Z,100586.69
2018-10-12T06:05:13.098Z,100585.20
2018-10-12T06:07:43.144Z,100592.33
2018-10-12T06:10:12.940Z,100596.75
2018-10-12T06:12:42.665Z,100592.93
2018-10-12T06:15:12.483Z,100607.86
2018-10-12T06:17:42.279Z,100606.34
2018-10-12T06:20:12.169Z,100612.48
2018-10-12T06:22:41.921Z,100613.64
2018-10-12T06:25:11.694Z,100620.64
2018-10-12T06:27:41.389Z,100635.82
2018-10-12T06:30:11.188Z,100638.55
2018-10-12T06:32:40.965Z,100644.00
2018-10-12T06:35:10.804Z,100639.50
2018-10-12T06:37:40.720Z,100643.14
2018-10-12T06:40:10.588Z,100650.70
2018-10-12T06:42:40.447Z,100657.09
2018-10-12T06:45:10.252Z,100665.90
2018-10-12T06:47:40.103Z,100671.25
2018-10-12T06:50:09.957Z,100662.12
2018-10-12T06:52:39.736Z,100661.60
2018-10-12T06:55:09.907Z,100665.62
2018-10-12T06:57:39.732Z,100670.82
2018-10-12T07:00:09.613Z,100675.72
2018-10-12T07:02:39.732Z,100682.39
2018-10-12T07:05:09.988Z,100692.31
2018-10-12T07:07:39.930Z,100701.30
2018-10-12T07:10:09.849Z,100709.61
2018-10-12T07:12:39.703Z,100713.03
2018-10-12T07:15:09.924Z,100713.75
2018-10-12T07:17:39.712Z,100715.23
2018-10-12T07:20:09.552Z,100715.98
2018-10-12T07:22:39.675Z,100726.02
2018-10-12T07:25:09.551Z,100727.45
2018-10-12T07:27:39.836Z,100729.94
2018-10-12T07:30:09.840Z,100732.47
2018-10-12T07:32:39.823Z,100732.84
2018-10-12T07:35:09.610Z,100738.63
2018-10-12T07:37:40.113Z,100748.00
2018-10-12T07:40:10.220Z,100753.78
2018-10-12T07:42:40.470Z,100756.20
2018-10-12T07:45:10.328Z,100748.38
2018-10-12T07:47:40.384Z,100751.34
2018-10-12T07:50:10.270Z,100757.65
2018-10-12T07:52:40.847Z,100748.50
2018-10-12T07:55:10.754Z,100751.77
2018-10-12T07:57:41.075Z,100755.64
2018-10-12T08:00:11.103Z,100758.41
2018-10-12T08:02:41.478Z,100760.29
2018-10-12T08:05:11.330Z,100762.72
2018-10-12T08:07:41.901Z,100761.19
2018-10-12T08:10:11.638Z,100758.86
2018-10-12T08:12:41.807Z,100768.39
2018-10-12T08:15:11.646Z,100762.22
2018-10-12T08:17:41.863Z,100764.23
2018-10-12T08:20:13.056Z,100760.99
2018-10-12T08:22:43.363Z,100761.11
2018-10-12T08:25:13.302Z,100754.86
2018-10-12T08:27:43.495Z,100764.95
2018-10-12T08:30:13.615Z,100774.75
2018-10-12T08:32:43.968Z,100778.45
2018-10-12T08:35:13.740Z,100780.45
2018-10-12T08:37:44.120Z,100785.58
2018-10-12T08:40:13.973Z,100785.08
2018-10-12T08:42:44.212Z,100782.95
2018-10-12T08:45:20.893Z,100781.20
2018-10-12T08:47:50.787Z,100788.58
2018-10-12T08:50:20.683Z,100791.20
2018-10-12T08:52:50.456Z,100795.28
2018-10-12T08:55:20.314Z,100789.39
2018-10-12T08:57:50.257Z,100791.04
2018-10-12T09:00:20.072Z,100781.91
2018-10-12T09:02:49.970Z,100773.52
2018-10-12T09:05:19.862Z,100782.77
2018-10-12T09:07:49.665Z,100785.53
2018-10-12T09:10:19.425Z,100785.25
2018-10-12T09:12:49.233Z,100797.97
2018-10-12T09:15:19.151Z,100806.36
2018-10-12T09:17:49.216Z,100808.81
2018-10-12T09:20:19.013Z,100809.09
2018-10-12T09:22:49.709Z,100815.01
2018-10-12T09:25:19.554Z,100819.36
2018-10-12T09:27:49.389Z,100825.14
2018-10-12T09:30:19.249Z,100822.33
2018-10-12T09:32:48.980Z,100832.97
2018-10-12T09:35:19.000Z,100832.42
2018-10-12T09:37:49.001Z,100841.34
2018-10-12T09:40:18.955Z,100833.28
2018-10-12T09:42:49.338Z,100844.38
2018-10-12T09:45:19.237Z,100836.01
2018-10-12T09:47:49.525Z,100843.91
2018-10-12T09:50:19.360Z,100838.73
2018-10-12T09:52:49.478Z,100830.61
2018-10-12T09:55:19.281Z,100830.87
2018-10-12T09:57:49.515Z,100830.62
2018-10-12T10:00:24.621Z,100828.70
2018-10-12T10:03:03.693Z,100838.48
2018-10-12T10:05:33.555Z,100830.88
2018-10-12T10:08:03.510Z,100830.36
2018-10-12T10:10:33.358Z,100830.11
2018-10-12T10:13:03.314Z,100826.31
2018-10-12T10:15:33.120Z,100820.91
2018-10-12T10:18:02.991Z,100822.80
2018-10-12T10:20:32.796Z,100828.43
2018-10-12T10:23:02.657Z,100818.12
2018-10-12T10:25:32.444Z,100814.58
2018-10-12T10:28:02.256Z,100822.17
2018-10-12T10:30:32.090Z,100820.02
2018-10-12T10:33:01.964Z,100815.91
2018-10-12T10:35:31.850Z,100810.76
2018-10-12T10:38:01.764Z,100807.52
2018-10-12T10:40:31.799Z,100819.69
2018-10-12T10:43:01.545Z,100814.02
2018-10-12T10:45:31.385Z,100810.53
2018-10-12T10:48:01.289Z,100803.70
2018-10-12T10:50:31.090Z,100803.39
2018-10-12T10:53:00.835Z,100797.13
2018-10-12T10:55:30.580Z,100795.58
2018-10-12T10:58:00.349Z,100797.20
2018-10-12T11:00:30.337Z,100803.89
2018-10-12T11:03:00.032Z,100807.41
2018-10-12T11:05:29.787Z,100796.80
2018-10-12T11:07:59.603Z,100794.13
2018-10-12T11:10:29.448Z,100788.83
2018-10-12T11:12:59.369Z,100785.73
2018-10-12T11:15:29.167Z,100785.69
2018-10-12T11:17:58.989Z,100780.22
2018-10-12T11:20:28.750Z,100779.59
2018-10-12T11:22:58.406Z,100781.53
2018-10-12T11:25:28.124Z,100770.50
2018-10-12T11:27:57.882Z,100775.42
2018-10-12T11:30:27.822Z,100765.41
2018-10-12T11:32:57.973Z,100767.88
2018-10-12T11:35:27.537Z,100767.52
2018-10-12T11:37:57.519Z,100766.98
2018-10-12T11:40:27.343Z,100764.55
2018-10-12T11:43:13.991Z,100756.57
2018-10-12T11:45:43.760Z,100759.84
2018-10-12T11:48:13.566Z,100757.67
2018-10-12T11:50:43.436Z,100758.73
2018-10-12T11:53:13.254Z,100765.77
2018-10-12T11:55:42.997Z,100764.82
2018-10-12T11:58:12.760Z,100768.05
2018-10-12T12:00:42.920Z,100776.98
2018-10-12T12:03:12.780Z,100773.31
2018-10-12T12:05:42.643Z,100771.86
2018-10-12T12:08:12.529Z,100769.78
2018-10-12T12:10:42.420Z,100771.08
2018-10-12T12:13:12.244Z,100768.05
2018-10-12T12:15:42.198Z,100760.39
2018-10-12T12:18:12.033Z,100763.80
2018-10-12T12:20:42.007Z,100762.41
2018-10-12T12:23:11.757Z,100761.70
2018-10-12T12:25:41.595Z,100756.42
2018-10-12T12:28:11.421Z,100761.56
2018-10-12T12:30:41.360Z,100757.30
2018-10-12T12:33:11.171Z,100761.17
2018-10-12T12:35:41.256Z,100766.58
2018-10-12T12:38:10.757Z,100769.79
2018-10-12T12:40:40.555Z,100762.48
2018-10-12T12:43:10.307Z,100765.50
2018-10-12T12:45:40.247Z,100768.41
2018-10-12T12:48:10.160Z,100776.02
2018-10-12T12:50:40.028Z,100771.95
2018-10-12T12:53:09.998Z,100772.05
2018-10-12T12:55:39.846Z,100771.38
2018-10-12T12:58:09.771Z,100761.63
2018-10-12T13:00:39.656Z,100762.92
2018-10-12T13:03:09.445Z,100770.53
2018-10-12T13:05:39.216Z,100773.25
2018-10-12T13:08:09.150Z,100775.28
2018-10-12T13:10:39.090Z,100767.62
2018-10-12T13:13:09.151Z,100774.61
2018-10-12T13:15:38.996Z,100773.31
2018-10-12T13:18:08.807Z,100772.75
2018-10-12T13:20:38.540Z,100768.66
2018-10-12T13:23:08.519Z,100760.74
2018-10-12T13:25:38.337Z,100776.25
2018-10-12T13:28:08.384Z,100767.43
2018-10-12T13:30:38.118Z,100775.89
2018-10-12T13:33:07.993Z,100778.97
2018-10-12T13:35:37.840Z,100779.12
2018-10-12T13:38:08.119Z,100782.07
2018-10-12T13:40:37.991Z,100785.00
2018-10-12T13:43:07.855Z,100786.58
2018-10-12T13:45:37.760Z,100777.95
2018-10-12T13:48:07.992Z,100778.19
2018-10-12T13:50:37.837Z,100777.91
2018-10-12T13:53:08.165Z,100776.89
2018-10-12T13:55:37.992Z,100787.33
2018-10-12T13:58:08.000Z,100788.44
2018-10-12T14:00:37.842Z,100787.14
2018-10-12T14:03:07.789Z,100787.58
2018-10-12T14:05:38.369Z,100785.28
2018-10-12T14:08:08.529Z,100784.55
2018-10-12T14:10:38.351Z,100785.78
2018-10-12T14:13:08.444Z,100781.74
2018-10-12T14:15:38.355Z,100784.00
2018-10-12T14:18:08.363Z,100788.63
2018-10-12T14:20:38.240Z,100782.89
2018-10-12T14:23:08.569Z,100787.77
2018-10-12T14:25:40.223Z,100788.39
2018-10-12T14:28:10.494Z,100794.64
2018-10-12T14:30:40.653Z,100794.14
2018-10-12T14:33:10.400Z,100786.11
2018-10-12T14:35:40.159Z,100786.58
2018-10-12T14:38:10.390Z,100785.49
2018-10-12T14:40:40.154Z,100787.62
2018-10-12T14:43:10.475Z,100778.55
2018-10-12T14:45:40.371Z,100787.38
2018-10-12T14:48:10.586Z,100790.67
2018-10-12T14:50:40.381Z,100790.23
2018-10-12T14:53:10.754Z,100786.95
2018-10-12T14:55:40.472Z,100777.14
2018-10-12T14:58:10.433Z,100778.42
2018-10-12T15:00:43.217Z,100784.00
2018-10-12T15:03:12.960Z,100776.20
2018-10-12T15:05:42.760Z,100768.99
2018-10-12T15:08:12.857Z,100771.88
2018-10-12T15:10:42.649Z,100775.64
2018-10-12T15:13:12.860Z,100781.38
2018-10-12T15:15:42.701Z,100775.58
2018-10-12T15:18:12.895Z,100775.53
2018-10-12T15:20:42.807Z,100778.80
2018-10-12T15:23:12.990Z,100774.22
2018-10-12T15:25:42.845Z,100776.88
2018-10-12T15:28:12.700Z,100767.09
2018-10-12T15:30:42.518Z,100771.16
2018-10-12T15:33:12.866Z,100774.36
2018-10-12T15:35:42.620Z,100776.56
2018-10-12T15:38:12.640Z,100775.64
2018-10-12T15:40:42.574Z,100778.12
2018-10-12T15:43:12.812Z,100773.64
2018-10-12T15:45:42.617Z,100772.19
2018-10-12T15:48:12.806Z,100770.13
2018-10-12T15:50:43.000Z,100776.16
2018-10-12T15:53:13.615Z,100776.79
2018-10-12T15:55:43.819Z,100775.92
2018-10-12T15:58:14.178Z,100776.50
2018-10-12T16:00:44.378Z,100776.83
2018-10-12T16:03:14.748Z,100775.19
2018-10-12T16:05:44.822Z,100775.53
2018-10-12T16:08:15.057Z,100778.05
2018-10-12T16:10:45.141Z,100788.61
2018-10-12T16:13:15.757Z,100780.17
2018-10-12T16:15:45.534Z,100783.20
2018-10-12T16:18:15.692Z,100788.90
2018-10-12T16:20:45.427Z,100789.97
2018-10-12T16:23:15.305Z,100792.70
2018-10-12T16:26:02.902Z,100789.46
2018-10-12T16:28:33.005Z,100787.83
2018-10-12T16:31:02.855Z,100791.08
2018-10-12T16:33:33.506Z,100790.30
2018-10-12T16:36:04.217Z,100794.25
2018-10-12T16:38:35.269Z,100791.84
2018-10-12T16:41:05.390Z,100801.04
2018-10-12T16:43:35.796Z,100804.58
2018-10-12T16:46:06.144Z,100805.38
2018-10-12T16:48:36.915Z,100807.02
2018-10-12T16:51:08.593Z,100807.28
2018-10-12T16:53:38.838Z,100803.45
2018-10-12T16:56:08.945Z,100813.78
2018-10-12T16:58:39.153Z,100818.11
2018-10-12T17:01:09.317Z,100814.33
2018-10-12T17:03:39.310Z,100814.08
2018-10-12T17:06:09.284Z,100821.90
2018-10-12T17:08:39.522Z,100825.17
2018-10-12T17:11:09.680Z,100825.21
2018-10-12T17:13:40.089Z,100829.55
2018-10-12T17:16:09.902Z,100830.62
2018-10-12T17:18:40.032Z,100840.12
2018-10-12T17:21:09.785Z,100841.76
2018-10-12T17:23:39.625Z,100838.75
2018-10-12T17:26:09.746Z,100841.20
2018-10-12T17:28:40.160Z,100842.03
2018-10-12T17:31:10.624Z,100834.70
2018-10-12T17:33:41.880Z,100833.08
2018-10-12T17:36:12.019Z,100836.85
2018-10-12T17:38:41.861Z,100844.44
2018-10-12T17:41:20.334Z,100845.52
2018-10-12T17:43:50.246Z,100842.53
2018-10-12T17:46:20.597Z,100847.95
2018-10-12T17:48:50.551Z,100847.13
2018-10-12T17:51:20.597Z,100849.30
2018-10-12T17:53:50.522Z,100846.05
2018-10-12T17:56:20.379Z,100847.68
2018-10-12T17:58:50.144Z,100854.15
2018-10-12T18:01:20.092Z,100850.12
2018-10-12T18:03:50.501Z,100852.25
2018-10-12T18:06:20.397Z,100858.23
2018-10-12T18:08:51.040Z,100852.52
2018-10-12T18:11:21.118Z,100855.74
2018-10-12T18:13:51.336Z,100856.83
2018-10-12T18:16:21.194Z,100855.77
2018-10-12T18:18:53.363Z,100858.45
2018-10-12T18:21:24.445Z,100860.87
2018-10-12T18:23:54.433Z,100850.90
2018-10-12T18:26:25.052Z,100857.91
2018-10-12T18:28:55.429Z,100857.91
2018-10-12T18:31:26.219Z,100860.05
2018-10-12T18:33:56.114Z,100855.44
2018-10-12T18:36:26.400Z,100856.80
2018-10-12T18:38:56.345Z,100861.11
2018-10-12T18:41:26.581Z,100857.59
2018-10-12T18:43:56.819Z,100870.21
2018-10-12T18:46:27.296Z,100865.95
2018-10-12T18:48:57.513Z,100870.30
2018-10-12T18:51:27.726Z,100863.80
2018-10-12T18:53:57.542Z,100871.83
2018-10-12T18:56:27.629Z,100877.80
2018-10-12T18:58:57.667Z,100871.91
2018-10-12T19:01:27.756Z,100873.16
2018-10-12T19:03:57.636Z,100872.69
2018-10-12T19:06:30.616Z,100876.61
2018-10-12T19:09:00.667Z,100876.97
2018-10-12T19:11:30.851Z,100876.41
2018-10-12T19:14:00.757Z,100873.12
2018-10-12T19:16:30.858Z,100876.86
2018-10-12T19:19:00.683Z,100877.18
2018-10-12T19:21:31.307Z,100880.35
2018-10-12T19:24:01.694Z,100883.33
2018-10-12T19:26:32.041Z,100887.59
2018-10-12T19:29:02.919Z,100888.67
2018-10-12T19:31:32.973Z,100891.37
2018-10-12T19:34:02.813Z,100889.99
2018-10-12T19:36:32.918Z,100892.88
2018-10-12T19:39:02.852Z,100890.20
2018-10-12T19:41:33.048Z,100891.22
2018-10-12T19:44:02.917Z,100899.45
2018-10-12T19:46:33.118Z,100897.05
2018-10-12T19:49:02.976Z,100900.47
2018-10-12T19:51:33.252Z,100910.47
2018-10-12T19:54:03.133Z,100909.80
2018-10-12T19:56:33.485Z,100908.47
2018-10-12T19:59:03.331Z,100901.78
2018-10-12T20:01:33.598Z,100902.91
2018-10-12T20:04:03.398Z,100900.71
2018-10-12T20:06:33.734Z,100902.63
2018-10-12T20:09:05.196Z,100901.25
2018-10-12T20:11:35.042Z,100896.85
2018-10-12T20:14:04.940Z,100900.64
2018-10-12T20:16:34.922Z,100905.38
2018-10-12T20:19:05.444Z,100903.98
2018-10-12T20:21:35.289Z,100908.04
2018-10-12T20:24:05.211Z,100911.52
2018-10-12T20:26:35.401Z,100909.05
2018-10-12T20:29:05.348Z,100913.30
2018-10-12T20:31:35.494Z,100908.23
2018-10-12T20:34:05.310Z,100903.58
2018-10-12T20:36:35.428Z,100912.38
2018-10-12T20:39:08.575Z,100912.72
2018-10-12T20:41:38.396Z,100915.12
2018-10-12T20:44:08.787Z,100924.00
2018-10-12T20:46:39.077Z,100914.31
2018-10-12T20:49:09.151Z,100919.17
2018-10-12T20:51:39.406Z,100915.91
2018-10-12T20:54:09.512Z,100910.17
2018-10-12T20:56:39.537Z,100916.84
2018-10-12T20:59:09.781Z,100921.14
2018-10-12T21:01:39.675Z,100921.37
2018-10-12T21:04:09.700Z,100922.42
2018-10-12T21:06:39.586Z,100920.21
2018-10-12T21:09:10.550Z,100919.67
2018-10-12T21:11:40.532Z,100922.95
2018-10-12T21:14:10.425Z,100922.38
2018-10-12T21:16:40.212Z,100922.72
2018-10-12T21:19:10.143Z,100921.21
2018-10-12T21:21:39.933Z,100917.35
2018-10-12T21:24:09.949Z,100920.17
2018-10-12T21:26:39.733Z,100925.23
2018-10-12T21:29:09.760Z,100921.37
2018-10-12T21:31:40.024Z,100923.61
2018-10-12T21:34:10.191Z,100922.68
2018-10-12T21:36:40.017Z,100918.05
2018-10-12T21:39:10.036Z,100916.07
2018-10-12T21:41:40.049Z,100915.04
2018-10-12T21:44:10.303Z,100917.78
2018-10-12T21:46:40.710Z,100919.05
2018-10-12T21:49:10.525Z,100923.14
2018-10-12T21:51:40.910Z,100919.31
2018-10-12T21:54:11.756Z,100928.14
2018-10-12T21:56:42.025Z,100927.28
2018-10-12T21:59:11.920Z,100926.06
2018-10-12T22:01:42.366Z,100924.53
2018-10-12T22:04:12.654Z,100926.73
2018-10-12T22:06:42.510Z,100926.82
2018-10-12T22:09:12.355Z,100931.25
2018-10-12T22:11:42.551Z,100925.47
2018-10-12T22:14:12.377Z,100921.36
2018-10-12T22:16:42.844Z,100930.58
2018-10-12T22:19:13.734Z,100923.59
2018-10-12T22:21:43.797Z,100922.60
2018-10-12T22:24:13.731Z,100918.75
2018-10-12T22:26:43.661Z,100918.75
2018-10-12T22:29:13.462Z,100911.83
2018-10-12T22:31:43.778Z,100915.80
2018-10-12T22:34:13.921Z,100917.09
2018-10-12T22:36:44.298Z,100921.11
2018-10-12T22:39:14.355Z,100922.92
2018-10-12T22:41:44.517Z,100918.22
2018-10-12T22:44:14.981Z,100908.77
2018-10-12T22:46:45.176Z,100922.64
2018-10-12T22:49:15.025Z,100923.81
2018-10-12T22:51:45.125Z,100912.68
2018-10-12T22:54:15.084Z,100915.30
2018-10-12T22:56:45.055Z,100917.61
2018-10-12T22:59:14.921Z,100918.41
2018-10-12T23:01:45.116Z,100920.78
2018-10-12T23:04:15.082Z,100916.66
2018-10-12T23:06:45.153Z,100916.19
2018-10-12T23:09:15.027Z,100913.81
2018-10-12T23:11:45.196Z,100912.50
2018-10-12T23:14:15.699Z,100913.99
2018-10-12T23:16:46.017Z,100914.83
2018-10-12T23:19:15.944Z,100915.73
2018-10-12T23:21:46.200Z,100920.22
2018-10-12T23:24:16.099Z,100917.59
2018-10-12T23:26:45.998Z,100910.61
2018-10-12T23:29:15.760Z,100907.55
2018-10-12T23:31:45.697Z,100911.87
2018-10-12T23:34:15.502Z,100909.03
2018-10-12T23:36:45.490Z,100910.33
2018-10-12T23:39:15.367Z,100904.08
2018-10-12T23:41:45.221Z,100908.16
2018-10-12T23:44:15.076Z,100906.48
2018-10-12T23:46:44.935Z,100908.08
2018-10-12T23:49:14.863Z,100909.67
2018-10-12T23:51:44.665Z,100914.55
2018-10-12T23:54:14.406Z,100905.67
2018-10-12T23:56:44.410Z,100911.44
2018-10-12T23:59:14.178Z,100909.78
